Time;durP1;ratioP1;P1;durP2;ratioP2;P2;SDS_P1;SDS_P2;PMS_P1;PMS_P2;Temp;Humidity;BMP_temperature;BMP_pressure;BME280_temperature;BME280_humidity;BME280_pressure;Samples;Min_cycle;Max_cycle;Signal;HPM_P1;HPM_P2
2021/09/25 00:00:27;;;;;;;4.40;3.35;;;15.90;99.90;;;;;;5032370;28;20087;-52
2021/09/25 00:02:54;;;;;;;5.63;3.60;;;15.90;99.90;;;;;;5032495;28;20021;-53
2021/09/25 00:05:19;;;;;;;8.93;3.40;;;15.90;99.90;;;;;;5032000;28;20272;-52
2021/09/25 00:07:45;;;;;;;6.03;3.42;;;15.80;99.90;;;;;;5032685;28;20392;-55
2021/09/25 00:10:11;;;;;;;7.57;3.97;;;15.80;99.90;;;;;;5032374;28;20079;-52
2021/09/25 00:12:38;;;;;;;5.25;3.65;;;15.90;99.90;;;;;;5032525;28;20024;-51
2021/09/25 00:15:04;;;;;;;6.65;3.92;;;15.80;99.90;;;;;;5031617;28;20109;-54
2021/09/25 00:17:30;;;;;;;9.00;3.67;;;15.80;99.90;;;;;;5032245;28;20543;-54
2021/09/25 00:19:56;;;;;;;4.72;4.22;;;15.80;99.90;;;;;;5014311;28;20082;-53
2021/09/25 00:22:21;;;;;;;5.82;2.88;;;15.80;99.90;;;;;;5032089;28;20415;-53
2021/09/25 00:24:47;;;;;;;4.50;3.22;;;15.80;99.90;;;;;;5031702;28;20475;-55
2021/09/25 00:27:12;;;;;;;5.30;3.17;;;15.80;99.90;;;;;;5014449;28;20100;-52
2021/09/25 00:29:38;;;;;;;5.50;3.70;;;15.70;99.90;;;;;;5031833;28;20022;-52
2021/09/25 00:32:04;;;;;;;5.28;3.05;;;15.70;99.90;;;;;;5031811;28;20434;-52
2021/09/25 00:34:29;;;;;;;6.13;4.05;;;15.70;99.90;;;;;;5029573;28;20391;-53
2021/09/25 00:36:55;;;;;;;4.32;3.38;;;15.70;99.90;;;;;;5032169;28;20025;-53
2021/09/25 00:39:20;;;;;;;3.65;3.17;;;15.70;99.90;;;;;;5031807;28;20025;-53
2021/09/25 00:41:46;;;;;;;5.13;3.80;;;15.70;99.90;;;;;;5031769;28;20029;-55
2021/09/25 00:44:12;;;;;;;6.82;4.00;;;15.70;99.90;;;;;;5032003;28;20036;-53
2021/09/25 00:46:37;;;;;;;6.45;3.50;;;15.70;99.90;;;;;;5031810;28;20029;-54
2021/09/25 00:49:03;;;;;;;5.72;3.90;;;15.60;99.90;;;;;;5031479;28;20112;-55
2021/09/25 00:51:29;;;;;;;6.43;3.97;;;15.70;99.90;;;;;;5031534;28;20030;-53
2021/09/25 00:53:54;;;;;;;6.68;4.05;;;15.70;99.90;;;;;;5031700;28;20056;-53
2021/09/25 00:56:22;;;;;;;11.90;3.83;;;15.70;99.90;;;;;;5013682;28;20679;-52
2021/09/25 00:58:47;;;;;;;11.13;3.67;;;15.70;99.90;;;;;;5029228;28;20021;-54
2021/09/25 01:01:13;;;;;;;8.20;4.38;;;15.70;99.90;;;;;;5028825;28;20503;-53
2021/09/25 01:03:38;;;;;;;10.23;4.22;;;15.70;99.90;;;;;;5029122;28;20117;-52
2021/09/25 01:06:04;;;;;;;5.25;3.85;;;15.70;99.90;;;;;;5030648;28;20025;-53
2021/09/25 01:08:29;;;;;;;5.40;4.40;;;15.70;99.90;;;;;;5031405;28;20032;-52
2021/09/25 01:10:56;;;;;;;7.88;3.67;;;15.70;99.90;;;;;;5031081;28;20108;-55
2021/09/25 01:13:22;;;;;;;6.35;4.03;;;15.70;99.90;;;;;;5031302;28;20028;-55
2021/09/25 01:15:49;;;;;;;6.13;3.78;;;15.70;99.90;;;;;;5031004;28;20033;-55
2021/09/25 01:18:15;;;;;;;5.10;3.67;;;15.70;99.90;;;;;;5031393;28;20021;-52
2021/09/25 01:20:41;;;;;;;5.60;3.63;;;15.70;99.90;;;;;;5030803;28;20100;-53
2021/09/25 01:23:07;;;;;;;7.00;4.00;;;15.70;99.90;;;;;;5030679;28;20033;-53
2021/09/25 01:25:33;;;;;;;5.85;4.03;;;15.70;99.90;;;;;;5030778;28;20539;-53
2021/09/25 01:28:00;;;;;;;10.68;4.93;;;15.70;99.90;;;;;;5030960;28;20170;-54
2021/09/25 01:30:26;;;;;;;7.30;4.32;;;15.70;99.90;;;;;;5030437;28;20036;-55
2021/09/25 01:32:52;;;;;;;6.80;4.88;;;15.70;99.90;;;;;;5030800;28;20029;-55
2021/09/25 01:35:22;;;;;;;8.68;4.78;;;15.70;99.90;;;;;;5022119;28;20013;-53
2021/09/25 01:37:50;;;;;;;8.15;5.25;;;15.70;99.90;;;;;;5042484;28;20035;-53
2021/09/25 01:40:16;;;;;;;7.93;5.53;;;15.70;99.90;;;;;;5050039;28;20029;-54
2021/09/25 01:42:42;;;;;;;12.75;5.78;;;15.70;99.90;;;;;;5032566;28;20171;-51
2021/09/25 01:45:09;;;;;;;9.45;4.80;;;15.70;99.90;;;;;;5050689;28;20510;-53
2021/09/25 01:47:35;;;;;;;7.35;4.80;;;15.60;99.90;;;;;;5050753;28;20025;-52
2021/09/25 01:50:03;;;;;;;6.00;5.13;;;15.60;99.90;;;;;;5032323;28;20493;-53
2021/09/25 01:52:29;;;;;;;8.10;5.38;;;15.60;99.90;;;;;;5050472;28;20044;-52
2021/09/25 01:54:54;;;;;;;9.75;5.32;;;15.60;99.90;;;;;;5050578;28;20055;-55
2021/09/25 01:57:20;;;;;;;12.23;5.78;;;15.60;99.90;;;;;;5050447;28;20503;-54
2021/09/25 01:59:46;;;;;;;7.57;5.50;;;15.60;99.90;;;;;;5050149;28;20475;-51
2021/09/25 02:02:12;;;;;;;11.13;6.40;;;15.50;99.90;;;;;;5050448;28;20032;-52
2021/09/25 02:04:38;;;;;;;8.48;6.13;;;15.50;99.90;;;;;;5050371;28;20033;-51
2021/09/25 02:07:05;;;;;;;7.38;5.40;;;15.50;99.90;;;;;;5032498;28;20049;-52
2021/09/25 02:09:31;;;;;;;8.98;5.95;;;15.50;99.90;;;;;;5031435;28;20029;-53
2021/09/25 02:11:56;;;;;;;6.63;5.95;;;15.50;99.90;;;;;;5050363;28;20035;-51
2021/09/25 02:14:22;;;;;;;10.43;5.95;;;15.50;99.90;;;;;;5050222;28;20142;-51
2021/09/25 02:16:48;;;;;;;6.60;5.18;;;15.50;99.90;;;;;;5050724;28;20025;-52
2021/09/25 02:19:13;;;;;;;10.73;6.65;;;15.50;99.90;;;;;;5050043;28;20025;-51
2021/09/25 02:21:39;;;;;;;10.50;6.05;;;15.50;99.90;;;;;;5032085;28;20517;-51
2021/09/25 02:24:05;;;;;;;11.38;6.28;;;15.50;99.90;;;;;;5050087;28;20383;-52
2021/09/25 02:26:30;;;;;;;11.15;6.32;;;15.50;99.90;;;;;;5049657;28;20029;-52
2021/09/25 02:28:56;;;;;;;8.18;6.18;;;15.50;99.90;;;;;;5049995;28;20063;-52
2021/09/25 02:31:21;;;;;;;7.13;6.00;;;15.50;99.90;;;;;;5031942;28;20498;-50
2021/09/25 02:33:48;;;;;;;10.00;6.43;;;15.50;99.90;;;;;;5050137;28;20035;-51
2021/09/25 02:36:13;;;;;;;7.15;6.43;;;15.40;99.90;;;;;;5050052;28;20032;-52
2021/09/25 02:38:39;;;;;;;11.88;7.53;;;15.40;99.90;;;;;;5049966;28;20415;-52
2021/09/25 02:41:05;;;;;;;13.43;7.38;;;15.40;99.90;;;;;;5031656;28;20108;-51
2021/09/25 02:43:30;;;;;;;11.63;7.45;;;15.40;99.90;;;;;;5049863;28;20033;-52
2021/09/25 02:45:56;;;;;;;11.77;7.82;;;15.40;99.90;;;;;;5050135;28;20021;-53
2021/09/25 02:48:22;;;;;;;11.05;7.38;;;15.50;99.90;;;;;;5049990;28;20017;-51
2021/09/25 02:50:48;;;;;;;9.52;7.60;;;15.50;99.90;;;;;;5049308;28;20048;-52
2021/09/25 02:53:13;;;;;;;12.60;7.50;;;15.50;99.90;;;;;;5049803;28;20096;-49
2021/09/25 02:55:39;;;;;;;10.27;7.38;;;15.50;99.90;;;;;;5049704;28;20025;-51
2021/09/25 02:58:05;;;;;;;12.82;7.93;;;15.50;99.90;;;;;;5049675;28;20065;-51
2021/09/25 03:00:30;;;;;;;13.30;8.55;;;15.50;99.90;;;;;;5049564;28;20035;-50
2021/09/25 03:02:56;;;;;;;11.60;8.68;;;15.40;99.90;;;;;;5049603;28;20100;-54
2021/09/25 03:05:21;;;;;;;11.48;7.82;;;15.40;99.90;;;;;;5049766;28;20044;-52
2021/09/25 03:07:47;;;;;;;10.20;8.23;;;15.40;99.90;;;;;;5049789;28;20021;-51
2021/09/25 03:10:13;;;;;;;13.20;8.20;;;15.40;99.90;;;;;;5049167;28;20017;-52
2021/09/25 03:12:39;;;;;;;15.02;9.50;;;15.40;99.90;;;;;;5049839;28;20021;-51
2021/09/25 03:15:06;;;;;;;13.93;7.65;;;15.50;99.90;;;;;;5049589;28;20056;-51
2021/09/25 03:17:32;;;;;;;11.90;8.07;;;15.50;99.90;;;;;;5049697;28;20026;-51
2021/09/25 03:19:57;;;;;;;12.35;8.93;;;15.50;99.90;;;;;;5049361;28;20053;-51
2021/09/25 03:22:23;;;;;;;11.65;9.57;;;15.50;99.90;;;;;;5053035;28;20071;-51
2021/09/25 03:24:49;;;;;;;13.40;9.10;;;15.50;99.90;;;;;;5053142;28;20044;-50
2021/09/25 03:27:15;;;;;;;18.02;10.50;;;15.50;99.90;;;;;;5053242;28;20036;-51
2021/09/25 03:29:40;;;;;;;12.70;9.25;;;15.50;99.90;;;;;;5053124;28;20032;-51
2021/09/25 03:32:07;;;;;;;10.95;9.00;;;15.50;99.90;;;;;;5053126;28;20032;-52
2021/09/25 03:34:33;;;;;;;18.35;10.32;;;15.50;99.90;;;;;;5053204;28;20036;-52
2021/09/25 03:36:58;;;;;;;11.90;9.00;;;15.40;99.90;;;;;;5053163;28;20104;-52
2021/09/25 03:39:24;;;;;;;13.60;9.68;;;15.40;99.90;;;;;;5052848;28;20651;-51
2021/09/25 03:41:50;;;;;;;12.93;9.27;;;15.40;99.90;;;;;;5052944;28;20043;-53
2021/09/25 03:44:15;;;;;;;15.15;9.00;;;15.40;99.90;;;;;;5053335;28;20032;-51
2021/09/25 03:46:41;;;;;;;13.98;10.00;;;15.50;99.90;;;;;;5035309;28;20514;-51
2021/09/25 03:49:07;;;;;;;12.25;10.02;;;15.40;99.90;;;;;;5052493;28;20017;-51
2021/09/25 03:51:32;;;;;;;11.70;9.57;;;15.40;99.90;;;;;;5034726;28;20025;-53
2021/09/25 03:53:58;;;;;;;12.20;10.07;;;15.40;99.90;;;;;;5052932;28;20017;-52
2021/09/25 03:56:24;;;;;;;13.88;9.93;;;15.40;99.90;;;;;;5052681;28;20117;-51
2021/09/25 03:58:50;;;;;;;15.00;10.55;;;15.40;99.90;;;;;;5052744;28;20024;-51
2021/09/25 04:01:15;;;;;;;13.93;9.77;;;15.40;99.90;;;;;;5052574;28;20021;-51
2021/09/25 04:03:41;;;;;;;12.50;9.30;;;15.40;99.90;;;;;;5052415;28;20078;-52
2021/09/25 04:06:07;;;;;;;16.98;9.88;;;15.50;99.90;;;;;;5034716;28;20025;-52
2021/09/25 04:08:33;;;;;;;10.75;9.25;;;15.50;99.90;;;;;;5052477;28;20108;-53
2021/09/25 04:10:59;;;;;;;14.55;10.13;;;15.50;99.90;;;;;;5034363;28;20025;-54
2021/09/25 04:13:25;;;;;;;15.60;10.55;;;15.50;99.90;;;;;;5052361;28;20024;-51
2021/09/25 04:15:51;;;;;;;15.05;11.27;;;15.50;99.90;;;;;;5052717;28;20033;-52
2021/09/25 04:18:17;;;;;;;12.65;10.20;;;15.50;99.90;;;;;;5052698;28;20146;-52
2021/09/25 04:20:42;;;;;;;15.43;10.43;;;15.50;99.90;;;;;;5052401;28;20025;-51
2021/09/25 04:23:08;;;;;;;12.73;10.75;;;15.50;99.90;;;;;;5034551;28;20552;-53
2021/09/25 04:25:34;;;;;;;18.05;10.90;;;15.50;99.90;;;;;;5051967;28;20533;-53
2021/09/25 04:28:04;;;;;;;13.73;10.43;;;15.50;99.90;;;;;;5052092;28;20029;-52
2021/09/25 04:30:33;;;;;;;14.55;9.88;;;15.50;99.90;;;;;;5051885;28;20036;-51
2021/09/25 04:32:59;;;;;;;15.20;11.98;;;15.50;99.90;;;;;;5034615;28;20025;-51
2021/09/25 04:35:25;;;;;;;12.40;10.63;;;15.50;99.90;;;;;;5052110;28;20024;-54
2021/09/25 04:37:50;;;;;;;16.58;10.60;;;15.50;99.90;;;;;;5052128;28;20625;-51
2021/09/25 04:40:16;;;;;;;13.60;11.35;;;15.50;99.90;;;;;;5033970;28;20052;-52
2021/09/25 04:42:42;;;;;;;15.68;11.07;;;15.50;99.90;;;;;;5051856;28;20021;-51
2021/09/25 04:45:12;;;;;;;13.48;9.73;;;15.50;99.90;;;;;;5052414;28;20477;-53
2021/09/25 04:47:40;;;;;;;15.00;11.45;;;15.50;99.90;;;;;;5052470;28;20040;-52
2021/09/25 04:50:06;;;;;;;11.98;10.57;;;15.50;99.90;;;;;;5051465;28;20024;-51
2021/09/25 04:52:32;;;;;;;13.18;10.82;;;15.50;99.90;;;;;;5051452;28;20033;-52
2021/09/25 04:54:57;;;;;;;13.70;12.27;;;15.50;99.90;;;;;;5051684;28;20047;-52
2021/09/25 04:57:23;;;;;;;16.42;12.18;;;15.50;99.90;;;;;;5051406;28;20368;-54
2021/09/25 04:59:48;;;;;;;16.80;12.93;;;15.60;99.90;;;;;;5051303;28;20078;-54
2021/09/25 05:02:14;;;;;;;15.25;11.82;;;15.50;99.90;;;;;;5033451;28;20299;-51
2021/09/25 05:04:39;;;;;;;16.33;12.00;;;15.60;99.90;;;;;;5051378;28;20032;-51
2021/09/25 05:07:05;;;;;;;18.55;12.50;;;15.60;99.90;;;;;;5051362;28;20029;-52
2021/09/25 05:09:30;;;;;;;16.15;13.65;;;15.50;99.90;;;;;;5050852;28;20490;-53
2021/09/25 05:11:56;;;;;;;16.10;12.65;;;15.60;99.90;;;;;;5033555;28;20391;-51
2021/09/25 05:14:21;;;;;;;16.15;12.95;;;15.60;99.90;;;;;;5033163;28;20506;-51
2021/09/25 05:16:47;;;;;;;16.65;12.68;;;15.60;99.90;;;;;;5051460;28;20021;-51
2021/09/25 05:19:13;;;;;;;21.92;13.90;;;15.60;99.90;;;;;;5051031;28;20390;-51
2021/09/25 05:21:38;;;;;;;16.15;12.82;;;15.60;99.90;;;;;;5050865;28;20025;-52
2021/09/25 05:24:04;;;;;;;16.10;12.55;;;15.60;99.90;;;;;;5051070;28;20475;-51
2021/09/25 05:26:30;;;;;;;19.60;13.82;;;15.60;99.90;;;;;;5050616;28;20376;-51
2021/09/25 05:28:56;;;;;;;19.45;14.00;;;15.60;99.90;;;;;;5051016;28;20067;-51
2021/09/25 05:31:21;;;;;;;19.83;14.07;;;15.60;99.90;;;;;;5050801;28;20032;-50
2021/09/25 05:33:47;;;;;;;19.30;14.02;;;15.60;99.90;;;;;;5050802;28;20463;-51
2021/09/25 05:36:12;;;;;;;16.63;13.38;;;15.70;99.90;;;;;;5051101;28;20032;-54
2021/09/25 05:38:38;;;;;;;20.27;16.55;;;15.70;99.90;;;;;;5050774;28;20036;-51
2021/09/25 05:41:04;;;;;;;28.25;17.33;;;15.70;99.90;;;;;;5050310;28;20104;-52
2021/09/25 05:43:29;;;;;;;21.58;15.57;;;15.70;99.90;;;;;;5050026;28;20029;-52
2021/09/25 05:45:55;;;;;;;24.83;16.40;;;15.70;99.90;;;;;;5050915;28;20067;-55
2021/09/25 05:48:21;;;;;;;20.63;14.10;;;15.70;99.90;;;;;;5050603;28;20071;-53
2021/09/25 05:50:46;;;;;;;24.15;17.50;;;15.70;99.90;;;;;;5050151;28;20086;-53
2021/09/25 05:53:12;;;;;;;24.30;15.43;;;15.70;99.90;;;;;;5050339;28;20407;-51
2021/09/25 05:55:40;;;;;;;24.33;16.17;;;15.70;99.90;;;;;;5050436;28;20607;-53
2021/09/25 05:58:05;;;;;;;24.35;16.85;;;15.70;99.90;;;;;;5050646;28;20032;-52
2021/09/25 06:00:31;;;;;;;21.27;15.25;;;15.70;99.90;;;;;;5050053;28;20099;-52
2021/09/25 06:02:57;;;;;;;26.25;16.88;;;15.70;99.90;;;;;;5050280;28;20028;-54
2021/09/25 06:05:24;;;;;;;24.23;15.32;;;15.80;99.90;;;;;;5050387;28;20471;-54
2021/09/25 06:07:50;;;;;;;23.65;16.15;;;15.80;99.90;;;;;;5050038;28;20021;-51
2021/09/25 06:10:16;;;;;;;28.42;17.33;;;15.80;99.90;;;;;;5050078;28;20096;-51
2021/09/25 06:12:42;;;;;;;25.05;16.35;;;15.80;99.90;;;;;;5050485;28;20456;-54
2021/09/25 06:15:08;;;;;;;29.00;19.60;;;15.80;99.90;;;;;;5050271;28;20032;-52
2021/09/25 06:17:34;;;;;;;26.73;17.52;;;15.80;99.90;;;;;;5050740;28;20025;-51
2021/09/25 06:19:59;;;;;;;27.90;18.95;;;15.80;99.90;;;;;;5049648;28;20498;-55
2021/09/25 06:22:25;;;;;;;25.15;16.42;;;15.90;99.90;;;;;;5050109;28;20033;-55
2021/09/25 06:24:52;;;;;;;29.50;17.25;;;15.90;99.90;;;;;;5049713;28;20028;-51
2021/09/25 06:27:18;;;;;;;24.27;16.90;;;15.90;99.90;;;;;;5050009;28;20100;-51
2021/09/25 06:29:44;;;;;;;24.48;18.98;;;15.90;99.90;;;;;;5049415;28;20514;-52
2021/09/25 06:32:09;;;;;;;29.25;18.27;;;15.90;99.90;;;;;;5049958;28;20108;-52
2021/09/25 06:34:36;;;;;;;28.73;18.70;;;15.90;99.90;;;;;;5049914;28;20136;-53
2021/09/25 06:37:03;;;;;;;31.45;18.73;;;15.90;99.90;;;;;;5049942;28;20049;-52
2021/09/25 06:39:28;;;;;;;27.08;16.58;;;15.90;99.90;;;;;;5049541;28;20595;-53
2021/09/25 06:41:54;;;;;;;38.45;18.08;;;15.90;99.90;;;;;;5049756;28;20061;-55
2021/09/25 06:44:19;;;;;;;23.70;16.50;;;16.00;99.90;;;;;;5049942;28;20486;-55
2021/09/25 06:46:45;;;;;;;28.05;17.50;;;16.00;99.90;;;;;;5050130;28;20032;-50
2021/09/25 06:49:11;;;;;;;27.10;18.42;;;16.00;99.90;;;;;;5031369;28;20032;-52
2021/09/25 06:51:36;;;;;;;25.73;16.67;;;16.00;99.90;;;;;;5031844;28;20452;-52
2021/09/25 06:54:02;;;;;;;31.52;18.00;;;16.00;99.90;;;;;;5031737;28;20021;-56
2021/09/25 06:56:28;;;;;;;26.70;17.83;;;16.00;99.90;;;;;;5053738;28;20036;-55
2021/09/25 06:58:53;;;;;;;30.02;17.38;;;16.10;99.90;;;;;;5053647;28;20036;-53
2021/09/25 07:01:19;;;;;;;26.63;16.35;;;16.10;99.90;;;;;;5053430;28;20068;-52
2021/09/25 07:03:45;;;;;;;29.65;16.48;;;16.10;99.90;;;;;;5053191;28;20025;-51
2021/09/25 07:06:10;;;;;;;22.83;15.02;;;16.10;99.90;;;;;;5035764;28;20045;-53
2021/09/25 07:08:36;;;;;;;25.30;15.88;;;16.10;99.90;;;;;;5053408;28;20104;-52
2021/09/25 07:11:02;;;;;;;24.55;14.73;;;16.10;99.90;;;;;;5035173;28;20360;-53
2021/09/25 07:13:28;;;;;;;21.50;15.55;;;16.20;99.90;;;;;;5035541;28;20029;-52
2021/09/25 07:15:53;;;;;;;24.25;16.13;;;16.20;99.90;;;;;;5053712;28;20487;-51
2021/09/25 07:18:20;;;;;;;27.98;16.95;;;16.20;99.90;;;;;;5053506;28;20495;-51
2021/09/25 07:20:45;;;;;;;22.88;15.25;;;16.20;99.90;;;;;;5053313;28;20418;-51
2021/09/25 07:23:11;;;;;;;20.30;15.95;;;16.30;99.90;;;;;;5053140;28;20033;-51
2021/09/25 07:25:39;;;;;;;24.23;15.45;;;16.30;99.90;;;;;;5053134;28;20467;-54
2021/09/25 07:28:06;;;;;;;26.55;15.43;;;16.30;99.90;;;;;;5053262;28;20102;-52
2021/09/25 07:30:33;;;;;;;27.98;15.82;;;16.40;99.90;;;;;;5052870;28;20074;-52
2021/09/25 07:33:00;;;;;;;20.27;14.60;;;16.40;99.90;;;;;;5053086;28;20383;-51
2021/09/25 07:35:26;;;;;;;22.83;15.55;;;16.40;99.90;;;;;;5053168;28;20094;-52
2021/09/25 07:37:52;;;;;;;25.02;16.85;;;16.40;99.90;;;;;;5053128;28;20487;-53
2021/09/25 07:40:17;;;;;;;22.52;14.18;;;16.50;99.90;;;;;;5052783;28;20029;-52
2021/09/25 07:42:43;;;;;;;22.17;13.63;;;16.50;99.90;;;;;;5052809;28;20025;-52
2021/09/25 07:45:10;;;;;;;24.33;13.32;;;16.50;99.90;;;;;;5053021;28;20442;-52
2021/09/25 07:47:36;;;;;;;22.88;13.60;;;16.50;99.90;;;;;;5053083;28;20053;-52
2021/09/25 07:50:04;;;;;;;21.35;13.73;;;16.50;99.90;;;;;;5052327;28;20055;-52
2021/09/25 07:52:30;;;;;;;18.55;14.00;;;16.50;99.90;;;;;;5052540;28;20021;-52
2021/09/25 07:54:55;;;;;;;20.23;14.07;;;16.60;99.90;;;;;;5052279;28;20446;-55
2021/09/25 07:57:21;;;;;;;18.92;12.02;;;16.70;99.90;;;;;;5052512;28;20066;-53
2021/09/25 07:59:46;;;;;;;23.52;14.02;;;16.80;99.90;;;;;;5052237;28;20398;-52
2021/09/25 08:02:12;;;;;;;20.63;12.50;;;16.80;99.90;;;;;;5052172;28;20028;-51
2021/09/25 08:04:37;;;;;;;17.92;12.52;;;16.80;99.90;;;;;;5034109;28;20025;-52
2021/09/25 08:07:03;;;;;;;19.83;13.25;;;16.90;99.90;;;;;;5051439;28;20041;-51
2021/09/25 08:09:29;;;;;;;20.88;13.38;;;16.90;99.90;;;;;;5051750;28;20025;-52
2021/09/25 08:11:54;;;;;;;21.38;12.80;;;17.00;99.90;;;;;;5051987;28;20506;-52
2021/09/25 08:14:20;;;;;;;20.17;12.65;;;16.90;99.90;;;;;;5051649;28;20028;-53
2021/09/25 08:16:45;;;;;;;26.15;13.23;;;17.00;99.90;;;;;;5052004;28;20573;-51
2021/09/25 08:19:11;;;;;;;19.33;12.32;;;17.00;99.90;;;;;;5052309;28;20021;-53
2021/09/25 08:21:36;;;;;;;16.58;11.52;;;17.00;99.90;;;;;;5052062;28;20064;-51
2021/09/25 08:24:02;;;;;;;19.23;11.57;;;17.00;99.90;;;;;;5052312;28;20147;-53
2021/09/25 08:26:28;;;;;;;16.92;11.65;;;17.00;99.90;;;;;;5051961;28;20091;-54
2021/09/25 08:28:53;;;;;;;19.40;12.35;;;17.10;99.90;;;;;;5052100;28;20035;-54
2021/09/25 08:31:19;;;;;;;18.15;12.30;;;17.20;99.90;;;;;;5034200;28;20503;-55
2021/09/25 08:33:45;;;;;;;14.65;11.52;;;17.30;99.90;;;;;;5051889;28;20044;-53
2021/09/25 08:36:10;;;;;;;16.67;11.38;;;17.40;99.90;;;;;;5052036;28;20065;-56
2021/09/25 08:38:36;;;;;;;13.70;11.32;;;17.40;99.90;;;;;;5051944;28;20028;-55
2021/09/25 08:41:02;;;;;;;17.30;11.95;;;17.50;99.90;;;;;;5033476;28;20499;-53
2021/09/25 08:43:28;;;;;;;21.25;11.73;;;17.50;99.90;;;;;;5051730;28;20025;-52
2021/09/25 08:46:03;;;;;;;17.98;11.13;;;17.50;99.90;;;;;;5051807;28;20021;-54
2021/09/25 08:48:32;;;;;;;21.30;11.18;;;17.60;99.90;;;;;;5052215;28;20017;-55
2021/09/25 08:50:57;;;;;;;14.10;9.77;;;17.60;99.90;;;;;;5051590;28;20024;-54
2021/09/25 08:53:24;;;;;;;16.20;10.13;;;17.70;99.90;;;;;;5051663;28;20033;-51
2021/09/25 08:55:51;;;;;;;16.50;9.40;;;17.70;99.90;;;;;;5051700;28;20040;-55
2021/09/25 08:58:16;;;;;;;13.57;10.15;;;17.70;99.90;;;;;;5051563;28;20032;-52
2021/09/25 09:00:44;;;;;;;18.42;11.80;;;17.80;99.90;;;;;;5051203;28;20025;-50
2021/09/25 09:03:18;;;;;;;12.15;9.77;;;17.80;99.90;;;;;;5051381;28;20100;-52
2021/09/25 09:05:44;;;;;;;17.10;10.30;;;17.80;99.90;;;;;;5033536;28;20056;-54
2021/09/25 09:08:09;;;;;;;16.60;10.02;;;17.80;99.90;;;;;;5051346;28;20127;-55
2021/09/25 09:10:36;;;;;;;11.57;9.25;;;17.90;99.90;;;;;;5050924;28;20071;-52
2021/09/25 09:13:03;;;;;;;12.98;8.90;;;18.00;99.90;;;;;;5051105;28;20115;-55
2021/09/25 09:15:34;;;;;;;14.48;9.82;;;18.00;99.90;;;;;;5050923;28;20017;-51
2021/09/25 09:18:01;;;;;;;18.67;10.07;;;18.10;99.90;;;;;;5049975;28;20543;-52
2021/09/25 09:20:31;;;;;;;16.48;10.10;;;18.10;99.90;;;;;;5050843;28;20532;-51
2021/09/25 09:23:18;;;;;;;17.88;11.02;;;18.10;99.90;;;;;;5073342;22;20053;-57
2021/09/25 09:25:44;;;;;;;15.02;11.02;;;18.10;99.90;;;;;;5031831;28;20021;-56
2021/09/25 09:28:24;;;;;;;14.32;11.30;;;18.10;99.90;;;;;;5050834;28;20040;-53
2021/09/25 09:30:52;;;;;;;15.07;11.32;;;18.10;99.90;;;;;;5050426;28;20086;-56
2021/09/25 09:33:34;;;;;;;15.40;10.48;;;18.20;99.90;;;;;;5050646;28;20025;-59
2021/09/25 09:36:20;;;;;;;15.57;11.27;;;18.20;99.90;;;;;;5050576;28;20025;-53
2021/09/25 09:38:51;;;;;;;;;;;18.30;99.90;;;;;;5051176;28;20037;-53
2021/09/25 09:41:30;;;;;;;10.75;9.52;;;18.30;99.90;;;;;;5067105;28;20391;-56
2021/09/25 09:44:21;;;;;;;14.30;10.43;;;18.30;99.90;;;;;;5066949;28;20146;-52
2021/09/25 09:46:53;;;;;;;15.73;10.20;;;18.30;99.90;;;;;;5065622;28;20029;-56
2021/09/25 09:49:26;;;;;;;14.10;10.68;;;18.40;99.90;;;;;;5067231;28;20033;-58
2021/09/25 09:51:58;;;;;;;16.67;11.55;;;18.40;99.90;;;;;;5067002;28;20116;-56
2021/09/25 09:54:28;;;;;;;11.35;9.57;;;18.40;99.90;;;;;;5067022;28;20052;-55
2021/09/25 09:56:57;;;;;;;13.18;8.45;;;18.40;99.90;;;;;;5066930;28;20040;-54
2021/09/25 09:59:24;;;;;;;18.08;10.65;;;18.50;99.90;;;;;;5066549;28;20104;-53
2021/09/25 10:01:50;;;;;;;15.68;10.95;;;18.50;99.90;;;;;;5066995;28;20029;-58
2021/09/25 10:04:16;;;;;;;16.30;9.77;;;18.50;99.90;;;;;;5066834;28;20372;-53
2021/09/25 10:06:43;;;;;;;24.00;10.60;;;18.60;99.90;;;;;;5066874;28;20049;-56
2021/09/25 10:09:14;;;;;;;13.88;9.60;;;18.60;99.90;;;;;;5066183;28;20055;-53
2021/09/25 10:11:46;;;;;;;13.35;9.65;;;18.70;99.90;;;;;;5066721;28;20035;-57
2021/09/25 10:14:19;;;;;;;15.25;9.05;;;18.80;99.90;;;;;;5066238;28;20479;-58
2021/09/25 10:16:46;;;;;;;13.25;8.48;;;18.80;99.90;;;;;;5066804;28;20021;-56
2021/09/25 10:19:14;;;;;;;16.23;9.60;;;18.90;99.90;;;;;;5066685;28;20016;-57
2021/09/25 10:21:40;;;;;;;12.15;8.70;;;19.00;99.90;;;;;;5066950;28;20024;-57
2021/09/25 10:24:14;;;;;;;10.35;8.98;;;19.10;99.90;;;;;;5066236;28;20617;-58
2021/09/25 10:26:47;;;;;;;16.23;10.02;;;19.20;99.90;;;;;;5066487;28;20166;-58
2021/09/25 10:29:19;;;;;;;11.35;8.25;;;19.20;99.90;;;;;;5065999;28;20029;-54
2021/09/25 10:31:44;;;;;;;10.27;8.55;;;19.40;99.90;;;;;;5065059;28;20122;-52
2021/09/25 10:34:17;;;;;;;10.93;8.93;;;19.40;99.90;;;;;;5066138;28;20454;-56
2021/09/25 10:36:47;;;;;;;13.23;7.45;;;19.40;99.90;;;;;;5066147;28;20100;-56
2021/09/25 10:39:28;;;;;;;9.95;8.05;;;19.40;99.90;;;;;;5065660;28;20126;-58
2021/09/25 10:42:13;;;;;;;12.30;8.55;;;19.50;99.90;;;;;;5066111;28;20017;-56
2021/09/25 10:44:50;;;;;;;8.73;7.72;;;19.50;99.90;;;;;;5066062;28;20535;-54
2021/09/25 10:47:22;;;;;;;11.57;8.73;;;19.50;99.90;;;;;;5066134;28;20625;-55
2021/09/25 10:49:59;;;;;;;12.27;8.32;;;19.50;99.90;;;;;;5066003;28;20025;-56
2021/09/25 10:52:40;;;;;;;10.07;8.25;;;19.50;99.90;;;;;;5054520;28;20052;-57
2021/09/25 10:55:24;;;;;;;10.25;7.30;;;19.50;99.90;;;;;;5052626;28;20040;-58
2021/09/25 10:58:15;;;;;;;10.77;7.85;;;19.50;99.90;;;;;;5052859;28;20382;-57
2021/09/25 11:00:48;;;;;;;10.27;8.27;;;19.50;99.90;;;;;;5052300;28;20575;-58
2021/09/25 11:06:07;;;;;;;10.48;7.38;;;19.50;99.90;;;;;;5052724;28;20039;-59
2021/09/25 11:08:35;;;;;;;10.32;7.28;;;19.40;99.90;;;;;;5052394;28;20021;-55
2021/09/25 11:11:12;;;;;;;10.25;8.18;;;19.40;99.90;;;;;;5052461;28;20399;-57
2021/09/25 11:14:00;;;;;;;9.27;8.27;;;19.50;99.90;;;;;;5051067;28;20021;-57
2021/09/25 11:16:44;;;;;;;9.85;7.90;;;19.50;99.90;;;;;;5051897;28;20043;-55
2021/09/25 11:19:21;;;;;;;8.30;7.50;;;19.60;99.90;;;;;;5051847;28;20199;-55
2021/09/25 11:21:58;;;;;;;10.65;7.25;;;19.60;99.90;;;;;;5052521;28;20021;-52
2021/09/25 11:24:24;;;;;;;11.27;8.00;;;19.80;99.90;;;;;;5051613;28;20029;-53
2021/09/25 11:26:50;;;;;;;11.18;6.88;;;19.80;99.90;;;;;;5052106;28;20021;-54
2021/09/25 11:29:16;;;;;;;11.02;7.60;;;19.90;99.90;;;;;;5052133;28;20564;-52
2021/09/25 11:31:47;;;;;;;11.90;8.35;;;20.00;99.90;;;;;;5051856;28;20433;-56
2021/09/25 11:34:24;;;;;;;10.25;7.65;;;19.90;99.90;;;;;;5051810;28;20083;-52
2021/09/25 11:36:55;;;;;;;10.18;6.60;;;19.90;99.90;;;;;;5051731;28;20020;-55
2021/09/25 11:39:35;;;;;;;8.85;6.60;;;20.00;99.90;;;;;;5051413;28;20035;-53
2021/09/25 11:42:21;;;;;;;9.63;7.47;;;19.90;99.90;;;;;;5051734;28;20372;-54
2021/09/25 11:44:56;;;;;;;8.38;6.75;;;19.90;99.90;;;;;;5051779;28;20025;-55
2021/09/25 11:47:33;;;;;;;9.48;7.30;;;19.90;99.90;;;;;;5051508;28;20112;-54
2021/09/25 11:50:11;;;;;;;10.60;7.80;;;20.00;99.90;;;;;;5051397;28;20099;-54
2021/09/25 11:52:38;;;;;;;8.43;6.53;;;20.10;99.90;;;;;;5050359;28;20029;-53
2021/09/25 11:55:05;;;;;;;10.70;6.88;;;20.10;99.90;;;;;;5051652;28;20021;-55
2021/09/25 11:57:30;;;;;;;9.35;7.00;;;20.00;99.90;;;;;;5051317;28;20029;-51
2021/09/25 11:59:56;;;;;;;9.95;6.50;;;20.00;99.90;;;;;;5051027;28;20446;-51
2021/09/25 12:02:43;;;;;;;8.52;6.38;;;20.00;99.90;;;;;;5051039;28;20025;-53
2021/09/25 12:05:39;;;;;;;8.60;6.15;;;20.00;99.90;;;;;;5051005;28;20025;-55
2021/09/25 12:08:09;;;;;;;8.75;5.88;;;19.90;99.90;;;;;;5050979;28;20673;-54
2021/09/25 12:10:41;;;;;;;6.07;5.25;;;19.90;99.90;;;;;;5050900;28;20669;-57
2021/09/25 12:13:17;;;;;;;10.70;5.97;;;20.00;99.90;;;;;;5051084;28;20025;-57
2021/09/25 12:15:43;;;;;;;;;;;20.00;99.90;;;;;;5051292;28;20051;-56
2021/09/25 12:18:11;;;;;;;12.55;6.28;;;20.00;99.90;;;;;;5050887;28;19951;-56
2021/09/25 12:20:37;;;;;;;7.57;6.05;;;20.00;99.90;;;;;;5050575;28;20040;-53
2021/09/25 12:23:05;;;;;;;9.02;6.28;;;20.00;99.90;;;;;;5051126;28;20025;-51
2021/09/25 12:25:42;;;;;;;7.50;5.43;;;20.10;99.90;;;;;;5049641;28;20102;-54
2021/09/25 12:28:25;;;;;;;10.07;6.63;;;20.10;99.90;;;;;;5051165;28;20027;-57
2021/09/25 12:30:52;;;;;;;10.52;6.57;;;20.10;99.90;;;;;;5049087;28;20037;-57
2021/09/25 12:33:17;;;;;;;8.88;5.93;;;20.20;99.90;;;;;;5050635;28;20416;-56
2021/09/25 12:35:57;;;;;;;7.30;5.90;;;20.20;99.90;;;;;;5050874;28;20096;-54
2021/09/25 12:38:28;;;;;;;8.32;6.25;;;20.20;99.90;;;;;;5050728;28;20029;-57
2021/09/25 12:41:05;;;;;;;7.38;5.70;;;20.20;99.90;;;;;;5050283;28;20029;-57